Time;durP1;ratioP1;P1;durP2;ratioP2;P2;SDS_P1;SDS_P2;PMS_P1;PMS_P2;Temp;Humidity;BMP_temperature;BMP_pressure;BME280_temperature;BME280_humidity;BME280_pressure;Samples;Min_cycle;Max_cycle;Signal;HPM_P1;HPM_P2
2022/10/11 00:00:54;;;;;;;5.90;1.40;;;;;;;6.65;66.30;100905.03;1764169;81;21054;-76
2022/10/11 00:03:22;;;;;;;4.10;1.50;;;;;;;6.63;66.32;100898.55;1762040;81;21075;-71
2022/10/11 00:05:48;;;;;;;4.92;1.70;;;;;;;6.61;66.35;100904.36;1764055;81;21007;-70
2022/10/11 00:08:15;;;;;;;2.27;1.47;;;;;;;6.57;66.47;100899.76;1763272;81;21099;-72
2022/10/11 00:10:42;;;;;;;3.05;1.50;;;;;;;6.56;66.53;100899.38;1764715;81;21020;-69
2022/10/11 00:13:09;;;;;;;2.85;1.40;;;;;;;6.55;66.60;100896.81;1764464;81;21050;-69
2022/10/11 00:15:37;;;;;;;3.25;1.60;;;;;;;6.53;66.67;100901.30;1761764;81;21974;-72
2022/10/11 00:18:04;;;;;;;4.10;1.40;;;;;;;6.50;66.73;100895.77;1709522;81;21050;-71
2022/10/11 00:20:30;;;;;;;2.25;1.20;;;;;;;6.48;66.76;100900.25;1764025;81;21024;-71
2022/10/11 00:22:57;;;;;;;3.95;1.70;;;;;;;6.48;66.80;100906.81;1760703;81;21087;-76
2022/10/11 00:25:23;;;;;;;6.33;1.62;;;;;;;6.46;66.85;100903.40;1763623;81;21031;-69
2022/10/11 00:27:50;;;;;;;2.47;1.35;;;;;;;6.43;66.93;100903.58;1763888;80;22038;-69
2022/10/11 00:30:16;;;;;;;3.70;1.40;;;;;;;6.43;66.94;100906.66;1748982;81;21055;-72
2022/10/11 00:32:43;;;;;;;7.15;1.60;;;;;;;6.43;66.98;100909.29;1764882;81;21126;-69
2022/10/11 00:35:09;;;;;;;3.55;1.45;;;;;;;6.41;67.02;100903.28;1764861;81;21042;-69
2022/10/11 00:37:37;;;;;;;3.83;1.40;;;;;;;6.39;67.08;100899.90;1764472;81;21023;-76
2022/10/11 00:40:07;;;;;;;2.77;1.40;;;;;;;6.37;67.10;100897.80;1753099;80;21876;-72
2022/10/11 00:42:33;;;;;;;4.40;1.52;;;;;;;6.33;67.19;100901.53;1764346;81;21404;-69
2022/10/11 00:45:34;;;;;;;3.67;1.57;;;;;;;6.29;67.28;100903.02;1763957;81;21043;-71
2022/10/11 00:48:12;;;;;;;6.70;1.75;;;;;;;6.28;67.31;100898.70;1764438;79;21569;-69
2022/10/11 00:50:38;;;;;;;2.87;1.50;;;;;;;6.25;67.38;100897.99;1717494;81;21134;-70
2022/10/11 00:53:08;;;;;;;2.55;1.52;;;;;;;6.22;67.43;100896.39;1764144;80;23278;-75
2022/10/11 00:55:39;;;;;;;4.55;1.47;;;;;;;6.21;67.46;100895.16;1764870;81;21447;-70
2022/10/11 00:58:06;;;;;;;1.90;1.07;;;;;;;6.18;67.47;100897.49;1764513;79;21011;-71
2022/10/11 01:00:33;;;;;;;2.10;1.25;;;;;;;6.19;67.52;100894.41;1743677;81;21015;-75
2022/10/11 01:03:00;;;;;;;3.55;1.20;;;;;;;6.16;67.53;100896.70;1764185;81;21007;-70
2022/10/11 01:05:26;;;;;;;4.60;1.42;;;;;;;6.15;67.59;100904.19;1765184;81;22334;-71
2022/10/11 01:07:53;;;;;;;4.22;1.40;;;;;;;6.12;67.60;100894.34;1765886;81;21004;-72
2022/10/11 01:10:20;;;;;;;5.97;1.30;;;;;;;6.10;67.66;100900.13;1762703;79;21011;-70
2022/10/11 01:13:12;;;;;;;2.45;1.20;;;;;;;6.07;67.71;100897.19;1734535;81;21031;-71
2022/10/11 01:15:51;;;;;;;2.47;1.20;;;;;;;6.06;67.75;100898.11;1710384;82;21054;-71
2022/10/11 01:18:22;;;;;;;3.83;1.50;;;;;;;6.03;67.86;100897.82;1737609;81;22136;-80
2022/10/11 01:21:01;;;;;;;3.00;1.10;;;;;;;6.02;67.88;100905.77;1727449;81;20950;-71
2022/10/11 01:23:38;;;;;;;3.83;1.30;;;;;;;6.01;67.89;100902.77;1758282;81;21080;-75
2022/10/11 01:26:25;;;;;;;1.35;0.93;;;;;;;5.98;67.94;100906.84;1759586;80;21076;-71
2022/10/11 01:29:02;;;;;;;2.25;1.20;;;;;;;6.00;67.93;100907.63;1746964;80;21568;-82
2022/10/11 01:31:58;;;;;;;4.15;1.50;;;;;;;5.97;67.95;100905.99;1735788;81;22721;-71
2022/10/11 01:34:42;;;;;;;2.67;1.42;;;;;;;5.96;67.98;100905.61;1770212;80;21028;-72
2022/10/11 01:37:32;;;;;;;4.03;1.20;;;;;;;5.94;67.97;100907.47;1710303;82;21059;-75
2022/10/11 01:40:10;;;;;;;4.10;1.52;;;;;;;5.91;67.99;100899.77;1754324;80;21035;-69
2022/10/11 01:42:38;;;;;;;1.75;1.07;;;;;;;5.89;68.04;100896.83;1734796;81;21493;-74
2022/10/11 01:45:07;;;;;;;2.95;1.30;;;;;;;5.86;68.05;100901.73;1770760;80;21803;-72
2022/10/11 01:47:34;;;;;;;2.33;1.30;;;;;;;5.84;68.13;100900.12;1744291;81;21047;-70
2022/10/11 01:50:01;;;;;;;3.05;1.30;;;;;;;5.81;68.16;100897.21;1739262;80;21113;-72
2022/10/11 01:52:31;;;;;;;2.85;1.20;;;;;;;5.79;68.20;100893.83;1723058;81;21142;-69
2022/10/11 01:55:26;;;;;;;1.92;1.30;;;;;;;5.77;68.25;100900.05;1735670;82;21580;-75
2022/10/11 01:58:37;;;;;;;4.50;1.37;;;;;;;5.74;68.32;100896.66;1776362;80;21953;-69
2022/10/11 02:01:18;;;;;;;3.22;1.15;;;;;;;5.72;68.35;100902.92;1742926;81;21694;-71
2022/10/11 02:04:07;;;;;;;3.37;1.20;;;;;;;5.65;68.41;100895.83;1745180;81;21012;-77
2022/10/11 02:07:03;;;;;;;1.90;1.10;;;;;;;5.65;68.41;100895.83;1760075;80;21577;-71
2022/10/11 02:09:36;;;;;;;3.67;1.40;;;;;;;5.67;68.43;100899.20;1728150;80;21466;-69
2022/10/11 02:12:10;;;;;;;3.70;1.27;;;;;;;5.64;68.47;100901.14;1712540;81;21847;-71
2022/10/11 02:14:43;;;;;;;2.12;1.20;;;;;;;5.63;68.48;100898.98;1746130;80;21038;-71
2022/10/11 02:17:18;;;;;;;4.90;1.35;;;;;;;5.62;68.50;100903.85;1782609;79;21035;-71
2022/10/11 02:19:49;;;;;;;3.52;1.37;;;;;;;5.59;68.57;100903.14;1728029;81;21024;-72
2022/10/11 02:22:30;;;;;;;3.33;1.27;;;;;;;5.57;68.67;100897.13;1752184;81;21044;-71
2022/10/11 02:24:58;;;;;;;2.87;1.05;;;;;;;5.54;68.74;100902.07;1754646;81;21906;-74
2022/10/11 02:27:29;;;;;;;2.92;1.20;;;;;;;5.53;68.80;100903.00;1749216;81;20963;-71
2022/10/11 02:29:55;;;;;;;2.70;1.45;;;;;;;5.51;68.84;100903.55;1738410;80;21441;-70
2022/10/11 02:32:23;;;;;;;5.62;1.52;;;;;;;5.48;68.91;100899.75;1766326;80;21436;-73
2022/10/11 02:34:53;;;;;;;3.77;1.42;;;;;;;5.47;69.02;100901.98;1791581;79;20944;-70
2022/10/11 02:37:41;;;;;;;4.87;1.22;;;;;;;5.44;69.11;100904.30;1723897;83;21894;-70
2022/10/11 02:40:22;;;;;;;1.75;1.25;;;;;;;5.42;69.16;100902.69;1736736;80;21022;-69
2022/10/11 02:43:31;;;;;;;2.67;1.50;;;;;;;5.39;69.25;100909.37;1785037;79;20964;-69
2022/10/11 02:46:00;;;;;;;2.08;1.35;;;;;;;5.36;69.33;100910.38;1778990;80;21004;-72
2022/10/11 02:48:28;;;;;;;2.95;1.17;;;;;;;5.36;69.36;100907.76;1789482;78;21066;-74
2022/10/11 02:50:57;;;;;;;3.00;1.42;;;;;;;5.33;69.48;100903.98;1789230;79;21906;-74
2022/10/11 02:53:25;;;;;;;3.27;1.60;;;;;;;5.31;69.57;100907.62;1711574;81;21031;-75
2022/10/11 02:55:53;;;;;;;3.87;1.50;;;;;;;5.29;69.68;100905.51;1773612;80;21022;-70
2022/10/11 02:58:20;;;;;;;4.25;1.30;;;;;;;5.26;69.78;100910.91;1756327;79;21059;-72
2022/10/11 03:00:47;;;;;;;3.90;1.42;;;;;;;5.23;69.96;100907.98;1780940;80;21510;-70
2022/10/11 03:03:14;;;;;;;2.92;1.50;;;;;;;5.23;70.02;100911.06;1744051;80;22572;-70
2022/10/11 03:05:42;;;;;;;3.20;1.32;;;;;;;5.21;70.13;100907.65;1780056;80;20979;-70
2022/10/11 03:08:13;;;;;;;3.72;1.35;;;;;;;5.21;70.18;100907.22;1785952;79;21035;-70
2022/10/11 03:10:39;;;;;;;3.83;1.12;;;;;;;5.18;70.25;100912.12;1766729;81;21031;-69
2022/10/11 03:13:06;;;;;;;2.50;1.20;;;;;;;5.17;70.33;100914.81;1770568;79;21067;-71
2022/10/11 03:15:34;;;;;;;2.85;1.40;;;;;;;5.16;70.43;100906.11;1760224;80;21892;-71
2022/10/11 03:18:02;;;;;;;3.25;1.20;;;;;;;5.18;70.47;100907.34;1767847;79;21011;-76
2022/10/11 03:20:30;;;;;;;3.60;1.45;;;;;;;5.17;70.48;100905.65;1759072;79;21043;-72
2022/10/11 03:22:57;;;;;;;2.10;0.90;;;;;;;5.16;70.53;100900.88;1758357;80;20996;-72
2022/10/11 03:25:23;;;;;;;2.25;1.30;;;;;;;5.16;70.54;100902.19;1774344;79;21081;-73
2022/10/11 03:27:49;;;;;;;4.00;1.10;;;;;;;5.15;70.53;100903.11;1752183;80;22156;-77
2022/10/11 03:30:16;;;;;;;4.65;1.40;;;;;;;5.13;70.55;100899.73;1769773;80;21044;-71
2022/10/11 03:32:43;;;;;;;2.33;1.20;;;;;;;5.14;70.55;100905.81;1751407;80;21111;-71
2022/10/11 03:35:10;;;;;;;3.00;1.00;;;;;;;5.11;70.56;100901.55;1725507;81;21181;-71
2022/10/11 03:37:38;;;;;;;4.37;1.98;;;;;;;5.12;70.55;100899.80;1754720;80;22076;-72
2022/10/11 03:40:07;;;;;;;1.57;1.00;;;;;;;5.09;70.60;100901.23;1751656;80;21812;-74
2022/10/11 03:42:35;;;;;;;2.65;1.10;;;;;;;5.06;70.64;100897.47;1749542;80;21059;-72
2022/10/11 03:45:06;;;;;;;1.62;1.20;;;;;;;5.04;70.70;100897.55;1737674;81;21043;-70
2022/10/11 03:47:31;;;;;;;1.80;1.02;;;;;;;5.03;70.78;100897.63;1797328;79;21028;-70
2022/10/11 03:49:58;;;;;;;1.82;1.20;;;;;;;5.01;70.86;100900.29;1768740;80;21019;-81
2022/10/11 03:52:24;;;;;;;3.45;1.30;;;;;;;5.01;70.89;100903.38;1766288;80;21926;-71
2022/10/11 03:54:51;;;;;;;2.47;1.00;;;;;;;5.00;70.90;100895.13;1755922;81;21609;-71
2022/10/11 03:57:18;;;;;;;2.02;1.20;;;;;;;4.99;70.90;100895.59;1769171;79;21094;-70
2022/10/11 03:59:46;;;;;;;2.15;1.20;;;;;;;4.97;70.95;100897.45;1760009;80;21044;-73
2022/10/11 04:02:13;;;;;;;2.58;1.30;;;;;;;4.94;71.03;100898.91;1757283;80;21046;-75
2022/10/11 04:04:40;;;;;;;4.40;1.27;;;;;;;4.94;71.10;100899.38;1755499;81;21928;-79
2022/10/11 04:07:08;;;;;;;1.60;0.90;;;;;;;4.93;71.12;100901.14;1777516;79;21414;-78
2022/10/11 04:09:34;;;;;;;2.98;1.20;;;;;;;4.93;71.14;100906.38;1784013;79;21138;-70
2022/10/11 04:12:02;;;;;;;2.30;1.22;;;;;;;4.93;71.17;100906.38;1757130;80;21013;-68
2022/10/11 04:14:31;;;;;;;2.42;1.05;;;;;;;4.92;71.24;100915.59;1778623;79;21052;-73
2022/10/11 04:16:58;;;;;;;3.27;2.20;;;;;;;4.89;71.31;100917.44;1793897;79;21933;-71
2022/10/11 04:19:26;;;;;;;4.17;2.20;;;;;;;4.89;71.37;100916.13;1781809;79;21035;-70
2022/10/11 04:21:52;;;;;;;3.90;2.37;;;;;;;4.88;71.49;100917.52;1771802;80;21032;-72
2022/10/11 04:24:19;;;;;;;21.12;17.00;;;;;;;4.84;71.63;100920.75;1804268;79;21004;-74
2022/10/11 04:26:45;;;;;;;22.98;18.32;;;;;;;4.81;71.73;100916.09;1774267;79;21470;-77
2022/10/11 04:29:12;;;;;;;14.63;9.90;;;;;;;4.80;71.89;100917.02;1799241;79;21926;-74
2022/10/11 04:31:39;;;;;;;6.75;4.87;;;;;;;4.81;72.00;100923.95;1799469;79;20984;-72
2022/10/11 04:34:05;;;;;;;10.72;8.83;;;;;;;4.81;72.08;100920.87;1792675;79;21020;-72
2022/10/11 04:36:32;;;;;;;4.92;2.40;;;;;;;4.82;72.14;100925.64;1770958;79;21066;-71
2022/10/11 04:39:00;;;;;;;4.30;1.92;;;;;;;4.83;72.25;100931.30;1769774;79;21549;-74
2022/10/11 04:41:28;;;;;;;3.80;1.80;;;;;;;4.81;72.37;100928.72;1776672;79;21814;-72
2022/10/11 04:43:55;;;;;;;3.20;1.55;;;;;;;4.81;72.41;100930.03;1778315;79;20971;-72
2022/10/11 04:46:22;;;;;;;3.92;1.80;;;;;;;4.83;72.54;100929.52;1779838;79;21430;-72
2022/10/11 04:48:49;;;;;;;5.03;1.87;;;;;;;4.86;72.60;100929.83;1760396;79;21396;-70
2022/10/11 04:51:16;;;;;;;2.20;1.40;;;;;;;4.88;72.72;100934.53;1795328;79;21538;-73
2022/10/11 04:53:42;;;;;;;3.17;1.72;;;;;;;4.90;72.72;100936.61;1753491;80;22533;-71
2022/10/11 04:56:16;;;;;;;3.60;1.92;;;;;;;4.93;72.78;100937.80;1761219;80;21020;-70
2022/10/11 04:58:39;;;;;;;16.37;13.58;;;;;;;4.96;72.85;100940.25;1746205;80;21016;-73
2022/10/11 05:01:07;;;;;;;31.40;22.67;;;;;;;4.98;72.94;100941.02;1754784;80;21541;-70
2022/10/11 05:03:36;;;;;;;18.42;15.20;;;;;;;5.00;73.03;100947.49;1781895;79;21007;-74
2022/10/11 05:06:03;;;;;;;72.15;52.35;;;;;;;5.04;73.06;100945.14;1753862;80;21827;-71
2022/10/11 05:08:30;;;;;;;47.03;32.13;;;;;;;5.08;73.12;100944.91;1782293;79;21035;-70
2022/10/11 05:10:59;;;;;;;8.45;5.12;;;;;;;5.11;73.16;100951.30;1765535;80;21062;-76
2022/10/11 05:13:27;;;;;;;3.15;2.00;;;;;;;5.14;73.25;100949.86;1784678;79;21477;-71
2022/10/11 05:15:53;;;;;;;3.60;1.82;;;;;;;5.16;73.30;100958.48;1782659;80;21417;-72
2022/10/11 05:18:20;;;;;;;3.72;1.87;;;;;;;5.21;73.31;100952.17;1782303;79;22469;-72
2022/10/11 05:20:54;;;;;;;3.35;1.80;;;;;;;5.24;73.30;100949.42;1790156;79;21035;-72
2022/10/11 05:23:21;;;;;;;3.90;1.57;;;;;;;5.30;73.23;100955.66;1753105;80;21126;-76
2022/10/11 05:25:47;;;;;;;4.00;1.52;;;;;;;5.36;73.23;100964.54;1798736;78;21055;-70
2022/10/11 05:28:15;;;;;;;2.20;1.40;;;;;;;5.41;73.21;100958.63;1784675;80;21065;-72
2022/10/11 05:30:42;;;;;;;2.83;1.40;;;;;;;5.47;73.15;100963.55;1794732;79;21924;-70
2022/10/11 05:33:10;;;;;;;14.43;11.18;;;;;;;5.53;73.00;100958.02;1761036;80;21435;-72
2022/10/11 05:35:39;;;;;;;8.63;6.37;;;;;;;5.62;72.95;100970.67;1758992;80;21024;-71
2022/10/11 05:38:06;;;;;;;5.28;2.62;;;;;;;5.71;72.85;100972.00;1764746;80;21035;-70
2022/10/11 05:40:33;;;;;;;4.35;1.72;;;;;;;5.78;72.64;100964.66;1774391;80;21048;-71
2022/10/11 05:43:00;;;;;;;1.87;1.30;;;;;;;5.88;72.50;100965.88;1758539;81;21940;-74
2022/10/11 05:45:27;;;;;;;4.60;1.30;;;;;;;5.96;72.38;100972.94;1780441;79;20995;-73
2022/10/11 05:47:54;;;;;;;2.95;1.10;;;;;;;6.02;72.31;100970.86;1751625;79;20972;-71
2022/10/11 05:50:22;;;;;;;4.30;1.17;;;;;;;6.11;72.11;100966.08;1778154;79;21011;-73
2022/10/11 05:52:50;;;;;;;3.58;1.20;;;;;;;6.17;71.89;100969.21;1712979;79;21043;-72
2022/10/11 05:55:17;;;;;;;4.65;1.17;;;;;;;6.24;71.45;100965.81;1766095;81;21715;-74
2022/10/11 05:57:44;;;;;;;1.87;1.17;;;;;;;6.30;71.40;100968.98;1767796;79;21055;-71
2022/10/11 06:00:11;;;;;;;2.40;1.40;;;;;;;6.38;71.19;100969.05;1747891;79;21450;-73
2022/10/11 06:02:41;;;;;;;3.25;1.40;;;;;;;6.46;71.02;100970.78;1778578;79;21051;-79
2022/10/11 06:05:09;;;;;;;2.80;1.32;;;;;;;6.55;70.83;100978.17;1779667;79;21082;-74
2022/10/11 06:07:36;;;;;;;2.02;1.20;;;;;;;6.63;70.60;100971.20;1776927;79;22811;-80
2022/10/11 06:10:04;;;;;;;5.08;1.52;;;;;;;6.70;70.24;100969.95;1764239;80;21059;-75
2022/10/11 06:12:31;;;;;;;3.58;1.50;;;;;;;6.77;70.05;100966.92;1763492;79;21043;-76
2022/10/11 06:14:57;;;;;;;2.45;1.50;;;;;;;6.82;69.71;100971.91;1771112;80;21501;-74
2022/10/11 06:17:24;;;;;;;5.55;1.57;;;;;;;6.88;69.46;100975.06;1752994;80;21501;-76
2022/10/11 06:19:51;;;;;;;2.90;1.40;;;;;;;6.96;69.33;100965.45;1751529;81;22228;-76
2022/10/11 06:22:18;;;;;;;3.87;1.60;;;;;;;7.04;69.05;100968.95;1759003;80;21041;-77
2022/10/11 06:24:45;;;;;;;3.10;1.90;;;;;;;7.11;69.04;100972.94;1758041;80;21055;-75
2022/10/11 06:27:12;;;;;;;3.50;2.10;;;;;;;7.16;68.83;100967.83;1762182;81;21637;-74
2022/10/11 06:29:38;;;;;;;4.20;1.70;;;;;;;7.22;68.57;100973.66;1757566;81;21000;-75
2022/10/11 06:32:07;;;;;;;3.40;1.62;;;;;;;7.25;68.32;100971.72;1764993;80;21918;-70
2022/10/11 06:34:33;;;;;;;6.25;3.92;;;;;;;7.31;68.35;100970.52;1761503;80;21114;-71
2022/10/11 06:37:00;;;;;;;5.05;2.10;;;;;;;7.37;68.15;100960.98;1759050;80;21039;-69
2022/10/11 06:39:27;;;;;;;4.87;1.70;;;;;;;7.42;68.07;100961.55;1759282;80;20955;-67
2022/10/11 06:41:54;;;;;;;2.65;1.32;;;;;;;7.49;67.78;100960.74;1723816;81;20963;-67
2022/10/11 06:44:21;;;;;;;3.60;1.55;;;;;;;7.57;67.59;100961.16;1736727;82;21926;-67
2022/10/11 06:46:49;;;;;;;2.83;1.62;;;;;;;7.65;67.31;100952.36;1739883;82;21064;-68
2022/10/11 06:49:16;;;;;;;2.55;1.60;;;;;;;7.73;67.05;100958.03;1737931;82;21069;-68
2022/10/11 06:51:43;;;;;;;2.83;1.50;;;;;;;7.78;66.93;100962.53;1739147;82;21001;-67
2022/10/11 06:54:09;;;;;;;5.10;1.72;;;;;;;7.84;66.63;100960.88;1739006;82;20961;-67
2022/10/11 06:56:37;;;;;;;3.98;1.87;;;;;;;7.91;66.72;100960.90;1738911;82;21927;-68
2022/10/11 06:59:04;;;;;;;3.62;1.67;;;;;;;8.00;66.64;100959.48;1739294;82;21026;-69
2022/10/11 07:01:31;;;;;;;4.60;1.65;;;;;;;8.07;66.34;100967.87;1717277;82;21098;-68
2022/10/11 07:04:00;;;;;;;4.58;1.42;;;;;;;8.17;66.15;100971.17;1723802;82;21027;-69
2022/10/11 07:06:28;;;;;;;4.12;1.40;;;;;;;8.27;65.90;100973.63;1705930;84;36476;-68
2022/10/11 07:08:57;;;;;;;3.75;1.70;;;;;;;8.37;65.57;100976.58;1759227;80;21036;-67
2022/10/11 07:11:26;;;;;;;3.77;1.70;;;;;;;8.50;65.45;100972.75;1717326;82;21003;-69
2022/10/11 07:13:54;;;;;;;3.12;1.80;;;;;;;8.60;64.80;100969.93;1727279;82;21059;-69
2022/10/11 07:16:23;;;;;;;2.83;1.90;;;;;;;8.71;64.36;100973.21;1691016;83;21048;-68
2022/10/11 07:18:55;;;;;;;3.45;1.77;;;;;;;8.79;64.37;100961.27;1761385;81;21413;-67
2022/10/11 07:21:21;;;;;;;4.33;2.05;;;;;;;8.90;64.33;100961.90;1764344;81;21934;-69
2022/10/11 07:23:47;;;;;;;3.15;1.87;;;;;;;9.00;64.32;100956.90;1762057;80;20964;-69
2022/10/11 07:26:14;;;;;;;2.90;1.47;;;;;;;9.14;64.28;100952.89;1759960;80;21200;-69
2022/10/11 07:28:41;;;;;;;3.05;1.90;;;;;;;9.20;63.66;100956.47;1763627;80;21046;-70
2022/10/11 07:31:12;;;;;;;4.62;1.87;;;;;;;9.24;63.47;100963.22;1760022;80;21470;-68
2022/10/11 07:33:39;;;;;;;3.05;1.45;;;;;;;9.28;63.04;100956.82;1756644;80;21803;-70
2022/10/11 07:36:07;;;;;;;2.27;1.42;;;;;;;9.32;62.96;100961.41;1763382;80;20972;-69
2022/10/11 07:38:34;;;;;;;3.02;1.60;;;;;;;9.42;63.07;100957.23;1752378;80;21013;-71
2022/10/11 07:41:05;;;;;;;3.27;1.52;;;;;;;9.50;62.84;100957.58;1719016;82;21089;-67
2022/10/11 07:43:32;;;;;;;2.90;1.20;;;;;;;9.62;62.96;100960.72;1721545;82;21028;-67
2022/10/11 07:46:03;;;;;;;1.95;1.20;;;;;;;9.75;62.22;100954.18;1721286;82;22270;-69
2022/10/11 07:48:28;;;;;;;1.67;1.10;;;;;;;9.89;62.02;100953.23;1740192;80;21024;-68
2022/10/11 07:51:03;;;;;;;3.20;1.55;;;;;;;9.99;61.30;100945.07;1748705;82;21021;-67
2022/10/11 07:53:30;;;;;;;3.52;1.15;;;;;;;10.10;61.17;100950.45;1738788;81;21465;-69
2022/10/11 07:56:00;;;;;;;2.55;0.80;;;;;;;10.21;61.18;100937.36;1729451;81;21474;-69
2022/10/11 07:58:27;;;;;;;2.62;1.00;;;;;;;10.37;60.91;100947.76;1758046;80;21359;-69
2022/10/11 08:00:54;;;;;;;2.20;1.00;;;;;;;10.49;59.08;100953.97;1729972;82;21031;-68
2022/10/11 08:03:21;;;;;;;2.12;1.00;;;;;;;10.54;58.76;100943.95;1698463;83;21012;-68
2022/10/11 08:05:48;;;;;;;3.50;1.25;;;;;;;10.63;57.82;100946.42;1731848;82;21080;-70
2022/10/11 08:08:14;;;;;;;2.25;1.20;;;;;;;10.69;57.47;100940.69;1735716;82;21059;-70
2022/10/11 08:10:42;;;;;;;1.90;0.65;;;;;;;10.77;56.81;100939.67;1756584;81;21014;-69
2022/10/11 08:13:09;;;;;;;1.40;1.00;;;;;;;10.83;56.84;100940.56;1763556;80;20928;-67
2022/10/11 08:15:36;;;;;;;2.37;0.70;;;;;;;10.96;56.13;100936.55;1759771;80;21022;-67
2022/10/11 08:18:03;;;;;;;1.45;0.60;;;;;;;11.07;55.61;100937.46;1783311;79;21016;-69
2022/10/11 08:20:31;;;;;;;1.92;0.80;;;;;;;11.21;55.04;100932.52;1743557;80;20969;-67
2022/10/11 08:22:58;;;;;;;1.87;0.57;;;;;;;11.32;53.82;100938.33;1761947;79;21876;-67
2022/10/11 08:25:24;;;;;;;2.08;0.47;;;;;;;11.36;52.06;100933.17;1762670;80;21044;-68
2022/10/11 08:27:51;;;;;;;0.40;0.40;;;;;;;11.42;50.94;100931.41;1759487;80;20957;-69
2022/10/11 08:30:17;;;;;;;0.60;0.45;;;;;;;11.50;49.40;100935.66;1784425;80;20996;-68
2022/10/11 08:32:44;;;;;;;1.20;0.40;;;;;;;11.57;48.94;100931.57;1784737;80;21027;-70
2022/10/11 08:35:10;;;;;;;1.10;0.50;;;;;;;11.70;49.24;100936.81;1769169;80;21932;-69
2022/10/11 08:37:37;;;;;;;3.58;0.50;;;;;;;11.80;48.13;100929.05;1755883;79;21047;-68
2022/10/11 08:40:07;;;;;;;1.90;0.40;;;;;;;11.89;47.94;100930.52;1799171;79;20976;-68
2022/10/11 08:42:37;;;;;;;1.77;0.50;;;;;;;11.99;47.32;100931.51;1758621;80;21534;-69
2022/10/11 08:45:09;;;;;;;1.52;0.57;;;;;;;12.07;47.73;100926.95;1785657;79;20997;-68
2022/10/11 08:47:43;;;;;;;2.15;0.55;;;;;;;12.21;46.14;100932.50;1791657;79;21549;-72
2022/10/11 08:50:18;;;;;;;1.05;0.50;;;;;;;12.28;45.28;100927.09;1787148;79;20908;-69
2022/10/11 08:53:14;;;;;;;1.22;0.50;;;;;;;12.34;45.59;100927.92;1785439;79;21069;-68
2022/10/11 08:55:48;;;;;;;1.67;0.53;;;;;;;12.45;44.74;100925.75;1787528;79;21010;-68
2022/10/11 08:58:24;;;;;;;0.65;0.40;;;;;;;12.48;43.52;100921.08;1779502;79;21520;-70
2022/10/11 09:00:53;;;;;;;0.90;0.50;;;;;;;12.52;44.42;100915.05;1755931;80;22111;-72
2022/10/11 09:03:38;;;;;;;2.33;0.50;;;;;;;12.64;44.55;100914.06;1785824;78;21051;-72
2022/10/11 09:06:51;;;;;;;0.85;0.37;;;;;;;12.82;44.08;100918.39;1754371;80;21052;-73
2022/10/11 09:09:42;;;;;;;0.62;0.47;;;;;;;12.94;43.25;100917.91;1780957;79;21086;-72
2022/10/11 09:12:40;;;;;;;0.75;0.40;;;;;;;13.09;43.18;100915.33;1787045;79;21046;-72
2022/10/11 09:15:30;;;;;;;1.85;0.53;;;;;;;13.23;42.41;100911.11;1792663;79;21812;-72
2022/10/11 09:18:20;;;;;;;1.05;0.40;;;;;;;13.34;41.85;100909.73;1716015;81;21074;-70
2022/10/11 09:21:19;;;;;;;0.57;0.47;;;;;;;13.45;41.10;100911.02;1722837;82;21057;-70
2022/10/11 09:23:57;;;;;;;0.40;0.30;;;;;;;13.55;41.52;100904.45;1727793;81;21098;-71
2022/10/11 09:26:31;;;;;;;0.75;0.40;;;;;;;13.68;40.41;100897.14;1728541;81;21028;-75
2022/10/11 09:29:07;;;;;;;3.50;0.40;;;;;;;13.74;40.03;100897.13;1759214;80;21965;-72
2022/10/11 09:31:34;;;;;;;0.42;0.30;;;;;;;13.79;40.23;100896.23;1745209;80;21516;-71
2022/10/11 09:34:12;;;;;;;2.77;0.50;;;;;;;13.89;40.49;100890.50;1748886;81;20959;-69
2022/10/11 09:37:15;;;;;;;1.40;0.50;;;;;;;14.06;38.83;100889.06;1723096;83;21028;-70
2022/10/11 09:40:11;;;;;;;0.88;0.50;;;;;;;14.21;38.30;100885.59;1723541;83;20964;-73
2022/10/11 09:42:39;;;;;;;0.98;0.70;;;;;;;14.45;38.91;100879.97;1740589;81;21950;-74
2022/10/11 09:45:14;;;;;;;0.45;0.30;;;;;;;14.64;37.52;100882.69;1723579;83;21075;-71
2022/10/11 09:47:41;;;;;;;0.23;0.23;;;;;;;14.68;36.68;100882.80;1732736;81;21426;-71
2022/10/11 09:50:28;;;;;;;2.40;0.53;;;;;;;14.67;37.54;100885.10;1738369;81;21462;-74
2022/10/11 09:52:58;;;;;;;1.12;0.40;;;;;;;14.78;36.59;100881.00;1742466;81;21007;-73
2022/10/11 09:55:44;;;;;;;0.90;0.53;;;;;;;14.78;36.05;100875.68;1746632;81;21954;-72
2022/10/11 09:58:31;;;;;;;1.00;0.40;;;;;;;14.81;36.10;100871.41;1738941;81;20960;-72
2022/10/11 10:01:04;;;;;;;0.60;0.40;;;;;;;14.89;36.03;100871.56;1741887;81;21086;-73
2022/10/11 10:03:35;;;;;;;0.70;0.40;;;;;;;15.07;36.35;100870.41;1739997;81;21430;-72
2022/10/11 10:06:11;;;;;;;1.72;0.50;;;;;;;15.26;37.00;100870.91;1717120;81;21107;-72
2022/10/11 10:08:41;;;;;;;5.45;0.65;;;;;;;15.42;36.06;100870.33;1739998;81;20996;-71
2022/10/11 10:11:10;;;;;;;0.72;0.47;;;;;;;15.44;36.19;100862.57;1755062;81;21038;-74
2022/10/11 10:13:50;;;;;;;0.90;0.50;;;;;;;15.52;35.96;100862.33;1728733;81;21078;-76
2022/10/11 10:16:26;;;;;;;1.67;0.60;;;;;;;15.55;35.81;100857.59;1732624;81;21477;-72
2022/10/11 10:19:03;;;;;;;0.60;0.40;;;;;;;15.59;35.06;100857.64;1725046;81;21004;-74
2022/10/11 10:21:39;;;;;;;0.82;0.50;;;;;;;15.57;35.46;100865.42;1740086;80;21890;-74
2022/10/11 10:24:10;;;;;;;1.67;0.40;;;;;;;15.65;35.18;100865.59;1743863;81;21074;-71
2022/10/11 10:26:38;;;;;;;2.80;0.60;;;;;;;15.69;35.34;100860.31;1733004;80;21536;-75
2022/10/11 10:29:15;;;;;;;1.15;0.60;;;;;;;15.66;34.86;100847.30;1739238;81;21035;-76
2022/10/11 10:31:53;;;;;;;1.27;0.60;;;;;;;15.73;35.99;100845.25;1738520;81;21070;-74
2022/10/11 10:34:32;;;;;;;0.68;0.50;;;;;;;16.01;35.70;100840.80;1733733;82;21906;-74
2022/10/11 10:37:24;;;;;;;2.33;0.40;;;;;;;16.28;34.61;100839.16;1735317;82;21059;-73
2022/10/11 10:40:11;;;;;;;2.00;0.45;;;;;;;16.56;34.33;100838.67;1740618;80;21012;-76
2022/10/11 10:42:37;;;;;;;3.60;0.62;;;;;;;16.79;33.67;100833.31;1732651;81;21025;-76
2022/10/11 10:45:06;;;;;;;1.65;0.65;;;;;;;16.95;32.88;100835.29;1753225;81;21027;-75
2022/10/11 10:48:04;;;;;;;1.05;0.70;;;;;;;17.09;33.32;100837.94;1736328;82;21726;-76
2022/10/11 10:50:57;;;;;;;3.00;0.80;;;;;;;17.30;32.77;100837.63;1727060;81;21040;-73
2022/10/11 10:53:44;;;;;;;0.87;0.53;;;;;;;17.38;31.89;100829.69;1711008;81;21040;-73
2022/10/11 10:56:28;;;;;;;1.10;0.57;;;;;;;17.30;31.62;100829.61;1717363;81;20975;-72
2022/10/11 10:59:28;;;;;;;0.60;0.40;;;;;;;17.23;31.85;100836.55;1742951;81;21158;-70
2022/10/11 11:02:03;;;;;;;0.78;0.50;;;;;;;17.35;33.25;100833.48;1724992;81;22584;-72
2022/10/11 11:04:32;;;;;;;1.67;0.42;;;;;;;17.68;33.15;100831.91;1731902;82;21564;-70
2022/10/11 11:07:24;;;;;;;0.50;0.45;;;;;;;17.92;32.12;100825.06;1734070;82;20972;-72
2022/10/11 11:10:04;;;;;;;0.80;0.50;;;;;;;17.98;31.56;100829.78;1710850;82;21512;-72
2022/10/11 11:13:05;;;;;;;1.32;0.50;;;;;;;17.99;31.94;100828.28;1759203;81;21378;-75
2022/10/11 11:15:39;;;;;;;0.72;0.40;;;;;;;18.12;32.03;100829.18;1753040;81;22495;-71
2022/10/11 11:18:30;;;;;;;0.60;0.50;;;;;;;18.22;32.03;100823.20;1727319;81;20931;-71
2022/10/11 11:21:34;;;;;;;1.52;0.50;;;;;;;18.38;30.87;100821.61;1769497;79;21051;-72
2022/10/11 11:24:26;;;;;;;1.47;0.60;;;;;;;18.46;31.28;100814.96;1798474;79;21082;-72
2022/10/11 11:27:28;;;;;;;0.82;0.30;;;;;;;18.54;31.09;100819.84;1764770;79;21062;-72
2022/10/11 11:30:07;;;;;;;1.35;0.60;;;;;;;18.46;29.93;100814.45;1762258;80;21924;-73
2022/10/11 11:32:48;;;;;;;1.30;0.40;;;;;;;18.49;30.88;100819.98;1760297;79;21075;-75
2022/10/11 11:35:38;;;;;;;1.77;0.40;;;;;;;18.65;31.98;100810.70;1787436;79;21008;-77
2022/10/11 11:38:19;;;;;;;0.90;0.50;;;;;;;18.82;31.71;100815.09;1779524;79;21434;-77
2022/10/11 11:44:21;;;;;;;0.98;0.47;;;;;;;19.02;31.86;100828.17;1762143;80;21885;-73
2022/10/11 11:47:00;;;;;;;1.95;0.60;;;;;;;18.86;31.24;100824.96;1740738;81;21477;-74
2022/10/11 11:49:40;;;;;;;1.32;0.60;;;;;;;18.71;31.46;100827.42;1768859;81;21139;-75
2022/10/11 11:52:13;;;;;;;0.90;0.60;;;;;;;18.67;31.83;100815.89;1768308;81;20996;-74
2022/10/11 11:54:56;;;;;;;1.83;0.67;;;;;;;18.69;32.70;100817.39;1768770;79;21549;-74
2022/10/11 11:57:55;;;;;;;2.05;0.60;;;;;;;18.90;31.99;100816.92;1768458;80;21813;-73